DAOB/TID METAR and TAF weather

Enter ICAO airport designator
Station Type Date Time Source
DAOB METAR 2020/03/31 22:00 UTC NOAA

DAOB 312200Z 03005KT 9999 FEW026CB SCT026 11/07 Q1013


Station Type Date Time Source
DAOB Decoded METAR 2020/03/31 22:00 UTC NOAA

Tiaret, Algeria (DAOB) 35-15N 001-26E 1127M
Mar 31, 2020 - 06:00 PM EDT / 2020.03.31 2200 UTC
Wind: from the NNE (030 degrees) at 6 MPH (5 KT):0
Visibility: greater than 7 mile(s):0
Sky conditions: partly cloudy
Weather: Cumulonimbus clouds observed
Temperature: 51 F (11 C)
Dew Point: 44 F (7 C)
Relative Humidity: 76%
Pressure (altimeter): 29.91 in. Hg (1013 hPa)
ob: DAOB 312200Z 03005KT 9999 FEW026CB SCT026 11/07 Q1013
cycle: 22

Station Type Date Time Source
DAOB TAF 2020/03/31 18:33 UTC NOAA

TAF DAOB 311700Z 3118/0118 34012KT 8000 SCT026 SCT080
TEMPO 3118/3122 FEW023CB
BECMG 3120/3123 VRB02KT
BECMG 0108/0110 34012KT
TEMPO 0110/0118 FEW023CB PROB40
TEMPO 0112/0116 34015G25KT 5000 -TSRA FEW023CB

Example: see airport list